SWA2757 KROC-KMCO
Flight info
| Callsign | SWA2757 |
|---|---|
| Flight time | 2h 8m |
| Altitude | 36000 |
| Route | GEE BURST EMNEM RICCS Q103 SLOJO EFFAY Q83 ROYCO Q85 LPERD GTOUT1 |
| Aircraft | B738/M-SDE2E3FGHIRWXY/LB1 |
Departure
| Time | 2026-04-22 21:54 |
|---|---|
| Airport | Frederick Douglass Greater Rochester International Airport (KROC) |
Arrival
| Time | 2026-04-23 00:02 |
|---|---|
| Airport | Orlando International Airport (KMCO) |
| Time | Latitude | Longitude | Altitude | Speed | Heading |
|---|---|---|---|---|---|
| 2026-04-22 21:40 | 43.12661 | -77.66597 | 552 ft | 0 kts | 301° |
| 2026-04-22 21:42 | 43.12660 | -77.66594 | 552 ft | 2 kts | 301° |
| 2026-04-22 21:42 | 43.12653 | -77.66577 | 552 ft | 0 kts | 300° |
| 2026-04-22 21:42 | 43.12647 | -77.66564 | 552 ft | 2 kts | 284° |
| 2026-04-22 21:43 | 43.12647 | -77.66544 | 552 ft | 2 kts | 257° |
| 2026-04-22 21:43 | 43.12653 | -77.66525 | 552 ft | 2 kts | 229° |
| 2026-04-22 21:43 | 43.12660 | -77.66516 | 553 ft | 0 kts | 211° |
| 2026-04-22 21:43 | 43.12667 | -77.66512 | 553 ft | 0 kts | 208° |
| 2026-04-22 21:46 | 43.12644 | -77.66528 | 552 ft | 10 kts | 207° |
| 2026-04-22 21:46 | 43.12573 | -77.66572 | 551 ft | 11 kts | 206° |
| 2026-04-22 21:46 | 43.12527 | -77.66638 | 552 ft | 7 kts | 243° |
| 2026-04-22 21:46 | 43.12519 | -77.66679 | 553 ft | 0 kts | 262° |
| 2026-04-22 21:48 | 43.12517 | -77.66715 | 554 ft | 13 kts | 265° |
| 2026-04-22 21:48 | 43.12512 | -77.66919 | 556 ft | 20 kts | 266° |
| 2026-04-22 21:48 | 43.12483 | -77.67082 | 557 ft | 15 kts | 223° |
| 2026-04-22 21:49 | 43.12382 | -77.67171 | 557 ft | 18 kts | 211° |
| 2026-04-22 21:49 | 43.12246 | -77.67287 | 555 ft | 25 kts | 211° |
| 2026-04-22 21:49 | 43.12075 | -77.67430 | 552 ft | 30 kts | 211° |
| 2026-04-22 21:49 | 43.11955 | -77.67531 | 548 ft | 20 kts | 211° |
| 2026-04-22 21:50 | 43.11864 | -77.67608 | 545 ft | 26 kts | 212° |
| 2026-04-22 21:50 | 43.11624 | -77.67808 | 539 ft | 33 kts | 211° |
| 2026-04-22 21:50 | 43.11422 | -77.67976 | 533 ft | 33 kts | 212° |
| 2026-04-22 21:50 | 43.11216 | -77.68151 | 531 ft | 34 kts | 212° |
| 2026-04-22 21:51 | 43.11046 | -77.68294 | 530 ft | 29 kts | 211° |
| 2026-04-22 21:51 | 43.10860 | -77.68449 | 530 ft | 27 kts | 211° |
| 2026-04-22 21:51 | 43.10712 | -77.68573 | 528 ft | 21 kts | 212° |
| 2026-04-22 21:52 | 43.10660 | -77.68657 | 527 ft | 0 kts | 271° |
| 2026-04-22 21:52 | 43.10670 | -77.68711 | 527 ft | 13 kts | 301° |
| 2026-04-22 21:53 | 43.10733 | -77.68734 | 528 ft | 5 kts | 29° |
| 2026-04-22 21:53 | 43.10745 | -77.68724 | 529 ft | 0 kts | 32° |
| 2026-04-22 21:53 | 43.10960 | -77.68542 | 530 ft | 76 kts | 30° |
| 2026-04-22 21:53 | 43.11637 | -77.67974 | 537 ft | 146 kts | 31° |
| 2026-04-22 21:54 | 43.12633 | -77.67109 | 802 ft | 182 kts | 32° |
| 2026-04-22 21:54 | 43.13554 | -77.66065 | 1853 ft | 170 kts | 33° |
| 2026-04-22 21:54 | 43.14559 | -77.65228 | 2258 ft | 176 kts | 24° |
| 2026-04-22 21:54 | 43.15713 | -77.64778 | 2758 ft | 172 kts | 358° |
| 2026-04-22 21:55 | 43.16874 | -77.65215 | 3067 ft | 183 kts | 331° |
| 2026-04-22 21:55 | 43.17952 | -77.66395 | 3248 ft | 204 kts | 314° |
| 2026-04-22 21:55 | 43.18714 | -77.68076 | 3598 ft | 222 kts | 285° |
| 2026-04-22 21:55 | 43.18750 | -77.70228 | 4026 ft | 238 kts | 263° |
| 2026-04-22 21:56 | 43.18372 | -77.72524 | 4436 ft | 253 kts | 259° |
| 2026-04-22 21:56 | 43.17693 | -77.74787 | 4939 ft | 268 kts | 237° |
| 2026-04-22 21:56 | 43.16298 | -77.76475 | 5694 ft | 274 kts | 211° |
| 2026-04-22 21:56 | 43.14432 | -77.77168 | 6319 ft | 287 kts | 184° |
| 2026-04-22 21:57 | 43.12441 | -77.76849 | 6964 ft | 295 kts | 171° |
| 2026-04-22 21:57 | 43.10430 | -77.76257 | 7606 ft | 299 kts | 172° |
| 2026-04-22 21:57 | 43.08371 | -77.75801 | 8239 ft | 304 kts | 176° |
| 2026-04-22 21:57 | 43.06265 | -77.75510 | 8949 ft | 305 kts | 179° |
| 2026-04-22 21:58 | 43.04131 | -77.75294 | 9600 ft | 310 kts | 180° |
| 2026-04-22 21:58 | 43.01936 | -77.75092 | 9917 ft | 322 kts | 180° |
| 2026-04-22 21:58 | 42.99709 | -77.74881 | 9967 ft | 320 kts | 179° |
| 2026-04-22 21:58 | 42.97494 | -77.74659 | 9978 ft | 316 kts | 180° |
| 2026-04-22 21:59 | 42.95319 | -77.74441 | 9995 ft | 315 kts | 179° |
| 2026-04-22 21:59 | 42.93113 | -77.74223 | 9989 ft | 314 kts | 180° |
| 2026-04-22 21:59 | 42.90875 | -77.74010 | 10122 ft | 333 kts | 180° |
| 2026-04-22 21:59 | 42.88494 | -77.73785 | 10482 ft | 349 kts | 179° |
| 2026-04-22 22:00 | 42.86038 | -77.73548 | 10813 ft | 365 kts | 179° |
| 2026-04-22 22:00 | 42.83450 | -77.73431 | 11174 ft | 377 kts | 186° |
| 2026-04-22 22:00 | 42.80840 | -77.73877 | 11504 ft | 387 kts | 196° |
| 2026-04-22 22:00 | 42.78228 | -77.74781 | 12144 ft | 389 kts | 200° |
| 2026-04-22 22:01 | 42.75609 | -77.75839 | 12826 ft | 392 kts | 202° |
| 2026-04-22 22:01 | 42.72971 | -77.76910 | 13413 ft | 399 kts | 201° |
| 2026-04-22 22:01 | 42.70326 | -77.77947 | 14120 ft | 402 kts | 201° |
| 2026-04-22 22:01 | 42.67612 | -77.78970 | 14863 ft | 407 kts | 200° |
| 2026-04-22 22:02 | 42.64881 | -77.79977 | 15530 ft | 412 kts | 200° |
| 2026-04-22 22:02 | 42.62101 | -77.80987 | 16216 ft | 417 kts | 200° |
| 2026-04-22 22:02 | 42.59258 | -77.82014 | 16861 ft | 423 kts | 200° |
| 2026-04-22 22:02 | 42.56415 | -77.83046 | 17552 ft | 426 kts | 200° |
| 2026-04-22 22:03 | 42.53586 | -77.84219 | 18164 ft | 429 kts | 204° |
| 2026-04-22 22:03 | 42.50840 | -77.85717 | 18872 ft | 428 kts | 211° |
| 2026-04-22 22:03 | 42.48155 | -77.87543 | 19421 ft | 432 kts | 214° |
| 2026-04-22 22:03 | 42.45555 | -77.89513 | 20069 ft | 434 kts | 216° |
| 2026-04-22 22:04 | 42.42933 | -77.91595 | 20702 ft | 437 kts | 217° |
| 2026-04-22 22:04 | 42.40318 | -77.93694 | 21253 ft | 442 kts | 216° |
| 2026-04-22 22:04 | 42.37653 | -77.95823 | 21811 ft | 446 kts | 216° |
| 2026-04-22 22:04 | 42.34983 | -77.97939 | 22442 ft | 449 kts | 216° |
| 2026-04-22 22:05 | 42.32272 | -78.00079 | 22817 ft | 457 kts | 216° |
| 2026-04-22 22:05 | 42.29537 | -78.02225 | 23518 ft | 457 kts | 216° |
| 2026-04-22 22:05 | 42.26788 | -78.04372 | 23967 ft | 462 kts | 216° |
| 2026-04-22 22:05 | 42.23961 | -78.06575 | 24348 ft | 469 kts | 216° |
| 2026-04-22 22:06 | 42.21155 | -78.08755 | 24970 ft | 470 kts | 216° |
| 2026-04-22 22:06 | 42.18310 | -78.10965 | 25376 ft | 475 kts | 216° |
| 2026-04-22 22:06 | 42.15458 | -78.13175 | 25818 ft | 479 kts | 216° |
| 2026-04-22 22:06 | 42.12554 | -78.15421 | 26311 ft | 482 kts | 217° |
| 2026-04-22 22:07 | 42.09608 | -78.17695 | 26656 ft | 488 kts | 217° |
| 2026-04-22 22:07 | 42.06674 | -78.19955 | 27162 ft | 489 kts | 217° |
| 2026-04-22 22:07 | 42.03728 | -78.22224 | 27546 ft | 493 kts | 217° |
| 2026-04-22 22:07 | 42.00717 | -78.24543 | 27922 ft | 497 kts | 217° |
| 2026-04-22 22:08 | 41.97735 | -78.26835 | 28455 ft | 497 kts | 217° |
| 2026-04-22 22:08 | 41.94717 | -78.29147 | 29114 ft | 493 kts | 217° |
| 2026-04-22 22:08 | 41.91721 | -78.31438 | 29625 ft | 493 kts | 217° |
| 2026-04-22 22:08 | 41.88782 | -78.33688 | 30114 ft | 493 kts | 218° |
| 2026-04-22 22:09 | 41.85807 | -78.35963 | 30645 ft | 491 kts | 218° |
| 2026-04-22 22:09 | 41.82843 | -78.38232 | 31042 ft | 492 kts | 218° |
| 2026-04-22 22:09 | 41.79890 | -78.40489 | 31486 ft | 491 kts | 218° |
| 2026-04-22 22:09 | 41.76924 | -78.42754 | 31985 ft | 489 kts | 218° |
| 2026-04-22 22:10 | 41.73966 | -78.45010 | 32361 ft | 490 kts | 218° |
| 2026-04-22 22:10 | 41.71027 | -78.47250 | 32727 ft | 491 kts | 218° |
| 2026-04-22 22:10 | 41.68064 | -78.49503 | 33166 ft | 489 kts | 217° |
| 2026-04-22 22:10 | 41.65098 | -78.51757 | 33613 ft | 487 kts | 218° |
| 2026-04-22 22:11 | 41.62141 | -78.54003 | 33992 ft | 487 kts | 218° |
| 2026-04-22 22:11 | 41.59195 | -78.56239 | 34425 ft | 486 kts | 218° |
| 2026-04-22 22:11 | 41.56284 | -78.58443 | 34850 ft | 484 kts | 218° |
| 2026-04-22 22:11 | 41.53327 | -78.60682 | 35164 ft | 485 kts | 218° |
| 2026-04-22 22:12 | 41.50399 | -78.62893 | 35688 ft | 481 kts | 218° |
| 2026-04-22 22:12 | 41.47478 | -78.65096 | 35987 ft | 482 kts | 217° |
| 2026-04-22 22:12 | 41.44521 | -78.67331 | 35994 ft | 486 kts | 217° |
| 2026-04-22 22:13 | 41.38669 | -78.71737 | 35994 ft | 480 kts | 217° |
| 2026-04-22 22:13 | 41.32851 | -78.76107 | 35996 ft | 481 kts | 217° |
| 2026-04-22 22:14 | 41.27035 | -78.80478 | 35999 ft | 482 kts | 217° |
| 2026-04-22 22:14 | 41.21214 | -78.84832 | 36009 ft | 479 kts | 217° |
| 2026-04-22 22:15 | 41.15407 | -78.89167 | 36016 ft | 480 kts | 217° |
| 2026-04-22 22:15 | 41.09576 | -78.93517 | 36013 ft | 480 kts | 217° |
| 2026-04-22 22:16 | 41.03776 | -78.97834 | 36007 ft | 480 kts | 217° |
| 2026-04-22 22:16 | 40.97957 | -79.02151 | 36008 ft | 480 kts | 216° |
| 2026-04-22 22:17 | 40.92157 | -79.06447 | 36007 ft | 480 kts | 216° |
| 2026-04-22 22:17 | 40.86371 | -79.10724 | 36007 ft | 478 kts | 217° |
| 2026-04-22 22:18 | 40.80545 | -79.15026 | 36008 ft | 480 kts | 217° |
| 2026-04-22 22:18 | 40.74756 | -79.19292 | 36007 ft | 479 kts | 216° |
| 2026-04-22 22:19 | 40.68948 | -79.23559 | 36004 ft | 478 kts | 216° |
| 2026-04-22 22:19 | 40.63138 | -79.27822 | 36005 ft | 478 kts | 216° |
| 2026-04-22 22:20 | 40.57330 | -79.32073 | 36005 ft | 479 kts | 216° |
| 2026-04-22 22:20 | 40.51509 | -79.36324 | 36012 ft | 477 kts | 216° |
| 2026-04-22 22:21 | 40.45704 | -79.40552 | 36015 ft | 478 kts | 216° |
| 2026-04-22 22:21 | 40.39931 | -79.44752 | 36022 ft | 479 kts | 216° |
| 2026-04-22 22:22 | 40.34111 | -79.48981 | 36022 ft | 478 kts | 216° |
| 2026-04-22 22:22 | 40.28287 | -79.53201 | 36026 ft | 480 kts | 216° |
| 2026-04-22 22:23 | 40.22426 | -79.57441 | 36030 ft | 481 kts | 216° |
| 2026-04-22 22:23 | 40.16573 | -79.61661 | 36031 ft | 480 kts | 216° |
| 2026-04-22 22:24 | 40.10721 | -79.65875 | 36035 ft | 480 kts | 215° |
| 2026-04-22 22:24 | 40.04905 | -79.70058 | 36037 ft | 480 kts | 215° |
| 2026-04-22 22:25 | 39.99035 | -79.74268 | 36041 ft | 480 kts | 215° |
| 2026-04-22 22:25 | 39.93212 | -79.78440 | 36045 ft | 482 kts | 215° |
| 2026-04-22 22:26 | 39.87329 | -79.82644 | 36054 ft | 480 kts | 215° |
| 2026-04-22 22:26 | 39.81470 | -79.86822 | 36057 ft | 481 kts | 214° |
| 2026-04-22 22:27 | 39.75586 | -79.91011 | 36055 ft | 481 kts | 214° |
| 2026-04-22 22:27 | 39.69749 | -79.95158 | 36059 ft | 482 kts | 214° |
| 2026-04-22 22:28 | 39.63860 | -79.99333 | 36060 ft | 482 kts | 214° |
| 2026-04-22 22:28 | 39.57995 | -80.03481 | 36059 ft | 480 kts | 214° |
| 2026-04-22 22:29 | 39.51819 | -80.06974 | 36059 ft | 491 kts | 199° |
| 2026-04-22 22:29 | 39.45004 | -80.07990 | 36067 ft | 499 kts | 185° |
| 2026-04-22 22:30 | 39.38060 | -80.08004 | 36069 ft | 501 kts | 182° |
| 2026-04-22 22:30 | 39.31058 | -80.07918 | 36069 ft | 500 kts | 182° |
| 2026-04-22 22:31 | 39.24127 | -80.07931 | 36064 ft | 500 kts | 183° |
| 2026-04-22 22:31 | 39.17193 | -80.08007 | 36065 ft | 501 kts | 183° |
| 2026-04-22 22:32 | 39.10218 | -80.08109 | 36068 ft | 500 kts | 183° |
| 2026-04-22 22:32 | 39.03248 | -80.08216 | 36064 ft | 499 kts | 183° |
| 2026-04-22 22:33 | 38.96325 | -80.08346 | 36078 ft | 498 kts | 185° |
| 2026-04-22 22:33 | 38.89446 | -80.09256 | 36080 ft | 495 kts | 195° |
| 2026-04-22 22:34 | 38.82834 | -80.11337 | 36091 ft | 491 kts | 200° |
| 2026-04-22 22:34 | 38.76259 | -80.13744 | 36097 ft | 490 kts | 200° |
| 2026-04-22 22:35 | 38.69686 | -80.16142 | 36095 ft | 489 kts | 200° |
| 2026-04-22 22:35 | 38.63157 | -80.18475 | 36098 ft | 491 kts | 199° |
| 2026-04-22 22:36 | 38.56588 | -80.20792 | 36092 ft | 491 kts | 199° |
| 2026-04-22 22:36 | 38.50010 | -80.23087 | 36098 ft | 489 kts | 199° |
| 2026-04-22 22:37 | 38.43432 | -80.25378 | 36102 ft | 489 kts | 199° |
| 2026-04-22 22:37 | 38.36889 | -80.27652 | 36117 ft | 491 kts | 199° |
| 2026-04-22 22:38 | 38.30281 | -80.29940 | 36119 ft | 489 kts | 199° |
| 2026-04-22 22:38 | 38.23756 | -80.32196 | 36126 ft | 489 kts | 199° |
| 2026-04-22 22:39 | 38.17200 | -80.34454 | 36127 ft | 488 kts | 199° |
| 2026-04-22 22:39 | 38.10648 | -80.36710 | 36132 ft | 488 kts | 199° |
| 2026-04-22 22:40 | 38.04108 | -80.38959 | 36132 ft | 489 kts | 199° |
| 2026-04-22 22:40 | 37.97556 | -80.41207 | 36129 ft | 487 kts | 199° |
| 2026-04-22 22:41 | 37.90995 | -80.43455 | 36136 ft | 488 kts | 199° |
| 2026-04-22 22:41 | 37.84440 | -80.45696 | 36136 ft | 487 kts | 199° |
| 2026-04-22 22:42 | 37.77923 | -80.47918 | 36129 ft | 487 kts | 199° |
| 2026-04-22 22:42 | 37.71376 | -80.50148 | 36127 ft | 487 kts | 199° |
| 2026-04-22 22:43 | 37.64774 | -80.52395 | 36123 ft | 488 kts | 199° |
| 2026-04-22 22:43 | 37.58254 | -80.54607 | 36125 ft | 485 kts | 198° |
| 2026-04-22 22:44 | 37.51733 | -80.56818 | 36126 ft | 487 kts | 198° |
| 2026-04-22 22:44 | 37.45187 | -80.59034 | 36124 ft | 486 kts | 198° |
| 2026-04-22 22:45 | 37.38638 | -80.61246 | 36129 ft | 485 kts | 198° |
| 2026-04-22 22:45 | 37.32135 | -80.63437 | 36130 ft | 486 kts | 198° |
| 2026-04-22 22:46 | 37.25586 | -80.65640 | 36146 ft | 486 kts | 198° |
| 2026-04-22 22:46 | 37.19036 | -80.67836 | 36143 ft | 485 kts | 198° |
| 2026-04-22 22:47 | 37.12526 | -80.69972 | 36140 ft | 487 kts | 196° |
| 2026-04-22 22:47 | 37.05838 | -80.71271 | 36137 ft | 489 kts | 185° |
| 2026-04-22 22:48 | 36.98977 | -80.71333 | 36133 ft | 491 kts | 179° |
| 2026-04-22 22:48 | 36.92161 | -80.71065 | 36137 ft | 491 kts | 179° |
| 2026-04-22 22:49 | 36.85343 | -80.70806 | 36143 ft | 489 kts | 179° |
| 2026-04-22 22:49 | 36.78533 | -80.70602 | 36150 ft | 489 kts | 180° |
| 2026-04-22 22:50 | 36.71704 | -80.70429 | 36150 ft | 489 kts | 180° |
| 2026-04-22 22:50 | 36.64919 | -80.70267 | 36140 ft | 488 kts | 180° |
| 2026-04-22 22:51 | 36.58097 | -80.70107 | 36127 ft | 489 kts | 180° |
| 2026-04-22 22:51 | 36.51300 | -80.69951 | 36118 ft | 488 kts | 180° |
| 2026-04-22 22:52 | 36.44517 | -80.69793 | 36114 ft | 488 kts | 180° |
| 2026-04-22 22:52 | 36.37777 | -80.69636 | 36112 ft | 487 kts | 180° |
| 2026-04-22 22:53 | 36.30954 | -80.69476 | 36111 ft | 487 kts | 180° |
| 2026-04-22 22:53 | 36.24197 | -80.69320 | 36106 ft | 487 kts | 180° |
| 2026-04-22 22:54 | 36.17411 | -80.69164 | 36103 ft | 487 kts | 179° |
| 2026-04-22 22:54 | 36.10665 | -80.69009 | 36101 ft | 486 kts | 179° |
| 2026-04-22 22:55 | 36.03889 | -80.68854 | 36099 ft | 486 kts | 179° |
| 2026-04-22 22:55 | 35.93751 | -80.68622 | 36099 ft | 485 kts | 179° |
| 2026-04-22 22:56 | 35.87022 | -80.68467 | 36092 ft | 485 kts | 179° |
| 2026-04-22 22:56 | 35.80268 | -80.68313 | 36098 ft | 485 kts | 179° |
| 2026-04-22 22:57 | 35.73537 | -80.68160 | 36102 ft | 484 kts | 179° |
| 2026-04-22 22:57 | 35.66768 | -80.68005 | 36107 ft | 483 kts | 179° |
| 2026-04-22 22:58 | 35.60067 | -80.67853 | 36109 ft | 484 kts | 179° |
| 2026-04-22 22:58 | 35.53353 | -80.67699 | 36112 ft | 483 kts | 179° |
| 2026-04-22 22:59 | 35.46607 | -80.67546 | 36113 ft | 482 kts | 179° |
| 2026-04-22 22:59 | 35.39872 | -80.67395 | 36119 ft | 483 kts | 179° |
| 2026-04-22 23:00 | 35.33185 | -80.67245 | 36116 ft | 482 kts | 179° |
| 2026-04-22 23:00 | 35.26510 | -80.67095 | 36116 ft | 481 kts | 179° |
| 2026-04-22 23:01 | 35.19805 | -80.66943 | 36114 ft | 482 kts | 179° |
| 2026-04-22 23:01 | 35.13118 | -80.66793 | 36112 ft | 481 kts | 179° |
| 2026-04-22 23:02 | 35.06410 | -80.66644 | 36117 ft | 480 kts | 179° |
| 2026-04-22 23:02 | 34.99749 | -80.66496 | 36114 ft | 481 kts | 179° |
| 2026-04-22 23:03 | 34.93043 | -80.66345 | 36110 ft | 480 kts | 179° |
| 2026-04-22 23:03 | 34.86377 | -80.66196 | 36112 ft | 480 kts | 179° |
| 2026-04-22 23:04 | 34.79704 | -80.66047 | 36113 ft | 480 kts | 179° |
| 2026-04-22 23:04 | 34.73016 | -80.65897 | 36110 ft | 479 kts | 179° |
| 2026-04-22 23:05 | 34.66379 | -80.65581 | 36114 ft | 479 kts | 175° |
| 2026-04-22 23:05 | 34.59803 | -80.64062 | 36116 ft | 480 kts | 164° |
| 2026-04-22 23:06 | 34.53426 | -80.61697 | 36107 ft | 479 kts | 161° |
| 2026-04-22 23:06 | 34.47087 | -80.59198 | 36116 ft | 479 kts | 161° |
| 2026-04-22 23:07 | 34.40773 | -80.56747 | 36115 ft | 479 kts | 162° |
| 2026-04-22 23:07 | 34.34399 | -80.54312 | 36120 ft | 479 kts | 162° |
| 2026-04-22 23:08 | 34.27979 | -80.52138 | 36120 ft | 478 kts | 169° |
| 2026-04-22 23:08 | 34.24711 | -80.51749 | 36118 ft | 476 kts | 182° |
| 2026-04-22 23:08 | 34.21403 | -80.52174 | 36134 ft | 474 kts | 192° |
| 2026-04-22 23:09 | 34.14978 | -80.53973 | 36120 ft | 473 kts | 196° |
| 2026-04-22 23:09 | 34.08637 | -80.56009 | 36123 ft | 473 kts | 197° |
| 2026-04-22 23:10 | 34.02261 | -80.58017 | 36122 ft | 472 kts | 196° |
| 2026-04-22 23:10 | 33.95896 | -80.59968 | 36120 ft | 472 kts | 196° |
| 2026-04-22 23:11 | 33.89550 | -80.61882 | 36130 ft | 471 kts | 195° |
| 2026-04-22 23:11 | 33.83207 | -80.63779 | 36120 ft | 471 kts | 195° |
| 2026-04-22 23:12 | 33.76801 | -80.65686 | 36120 ft | 470 kts | 195° |
| 2026-04-22 23:12 | 33.70477 | -80.67564 | 36113 ft | 471 kts | 195° |
| 2026-04-22 23:13 | 33.64124 | -80.69448 | 36122 ft | 469 kts | 196° |
| 2026-04-22 23:13 | 33.57779 | -80.71327 | 36120 ft | 469 kts | 196° |
| 2026-04-22 23:14 | 33.51459 | -80.73193 | 36135 ft | 469 kts | 196° |
| 2026-04-22 23:14 | 33.45110 | -80.75063 | 36137 ft | 468 kts | 195° |
| 2026-04-22 23:15 | 33.38790 | -80.76920 | 36124 ft | 468 kts | 196° |
| 2026-04-22 23:15 | 33.32470 | -80.78773 | 36131 ft | 469 kts | 195° |
| 2026-04-22 23:16 | 33.26159 | -80.80621 | 36129 ft | 467 kts | 196° |
| 2026-04-22 23:16 | 33.19843 | -80.82469 | 36118 ft | 466 kts | 196° |
| 2026-04-22 23:17 | 33.13560 | -80.84306 | 36127 ft | 467 kts | 196° |
| 2026-04-22 23:17 | 33.07262 | -80.86144 | 36131 ft | 465 kts | 196° |
| 2026-04-22 23:18 | 33.00961 | -80.87981 | 36130 ft | 467 kts | 196° |
| 2026-04-22 23:18 | 32.94635 | -80.89821 | 36131 ft | 466 kts | 196° |
| 2026-04-22 23:19 | 32.88332 | -80.91650 | 36139 ft | 465 kts | 196° |
| 2026-04-22 23:19 | 32.82065 | -80.93467 | 36140 ft | 465 kts | 196° |
| 2026-04-22 23:20 | 32.75802 | -80.95280 | 36145 ft | 464 kts | 196° |
| 2026-04-22 23:20 | 32.69510 | -80.97099 | 36143 ft | 464 kts | 196° |
| 2026-04-22 23:21 | 32.63248 | -80.98908 | 36149 ft | 464 kts | 196° |
| 2026-04-22 23:21 | 32.56975 | -81.00709 | 36154 ft | 464 kts | 195° |
| 2026-04-22 23:22 | 32.50568 | -81.01979 | 36156 ft | 466 kts | 187° |
| 2026-04-22 23:22 | 32.44094 | -81.02254 | 36156 ft | 468 kts | 182° |
| 2026-04-22 23:23 | 32.37579 | -81.02290 | 36164 ft | 466 kts | 182° |
| 2026-04-22 23:23 | 32.31091 | -81.02337 | 36167 ft | 466 kts | 182° |
| 2026-04-22 23:24 | 32.24600 | -81.02418 | 36169 ft | 466 kts | 183° |
| 2026-04-22 23:24 | 32.18159 | -81.02518 | 36170 ft | 465 kts | 183° |
| 2026-04-22 23:25 | 32.11682 | -81.02626 | 36172 ft | 466 kts | 183° |
| 2026-04-22 23:25 | 32.05154 | -81.02741 | 36174 ft | 467 kts | 183° |
| 2026-04-22 23:26 | 31.98696 | -81.02854 | 36170 ft | 465 kts | 183° |
| 2026-04-22 23:26 | 31.92223 | -81.03016 | 36171 ft | 466 kts | 184° |
| 2026-04-22 23:27 | 31.85747 | -81.03203 | 36172 ft | 464 kts | 184° |
| 2026-04-22 23:27 | 31.79253 | -81.03388 | 36171 ft | 465 kts | 184° |
| 2026-04-22 23:28 | 31.72771 | -81.03571 | 36174 ft | 466 kts | 184° |
| 2026-04-22 23:28 | 31.66332 | -81.03747 | 36173 ft | 466 kts | 184° |
| 2026-04-22 23:29 | 31.59853 | -81.04275 | 36179 ft | 461 kts | 194° |
| 2026-04-22 23:29 | 31.53884 | -81.06662 | 36176 ft | 452 kts | 209° |
| 2026-04-22 23:30 | 31.48293 | -81.10037 | 36176 ft | 449 kts | 212° |
| 2026-04-22 23:30 | 31.42835 | -81.13477 | 36177 ft | 448 kts | 212° |
| 2026-04-22 23:31 | 31.37309 | -81.16921 | 36176 ft | 450 kts | 212° |
| 2026-04-22 23:31 | 31.31763 | -81.20269 | 36170 ft | 450 kts | 211° |
| 2026-04-22 23:32 | 31.26193 | -81.23573 | 36175 ft | 447 kts | 211° |
| 2026-04-22 23:32 | 31.20538 | -81.26753 | 36173 ft | 449 kts | 206° |
| 2026-04-22 23:33 | 31.14417 | -81.28361 | 36186 ft | 460 kts | 188° |
| 2026-04-22 23:33 | 31.08002 | -81.28486 | 36175 ft | 461 kts | 184° |
| 2026-04-22 23:34 | 31.01576 | -81.28359 | 36182 ft | 461 kts | 183° |
| 2026-04-22 23:34 | 30.95151 | -81.28263 | 36183 ft | 461 kts | 184° |
| 2026-04-22 23:35 | 30.88752 | -81.28213 | 36184 ft | 460 kts | 185° |
| 2026-04-22 23:35 | 30.82336 | -81.28182 | 36183 ft | 460 kts | 184° |
| 2026-04-22 23:36 | 30.75945 | -81.28159 | 36179 ft | 460 kts | 185° |
| 2026-04-22 23:36 | 30.69572 | -81.28142 | 36173 ft | 458 kts | 185° |
| 2026-04-22 23:37 | 30.66377 | -81.28133 | 35895 ft | 453 kts | 185° |
| 2026-04-22 23:37 | 30.63268 | -81.28121 | 35387 ft | 450 kts | 185° |
| 2026-04-22 23:37 | 30.60102 | -81.28110 | 34731 ft | 450 kts | 185° |
| 2026-04-22 23:37 | 30.56974 | -81.28009 | 34276 ft | 447 kts | 182° |
| 2026-04-22 23:38 | 30.50790 | -81.27531 | 34191 ft | 452 kts | 181° |
| 2026-04-22 23:38 | 30.44418 | -81.26998 | 34189 ft | 464 kts | 182° |
| 2026-04-22 23:39 | 30.37997 | -81.26479 | 34185 ft | 463 kts | 182° |
| 2026-04-22 23:39 | 30.31578 | -81.25980 | 34190 ft | 462 kts | 182° |
| 2026-04-22 23:40 | 30.25137 | -81.25491 | 34189 ft | 462 kts | 182° |
| 2026-04-22 23:40 | 30.18718 | -81.25004 | 34190 ft | 460 kts | 183° |
| 2026-04-22 23:41 | 30.12359 | -81.24524 | 33484 ft | 457 kts | 183° |
| 2026-04-22 23:41 | 30.09170 | -81.24289 | 32601 ft | 461 kts | 183° |
| 2026-04-22 23:41 | 30.05989 | -81.24055 | 31764 ft | 464 kts | 182° |
| 2026-04-22 23:42 | 30.02750 | -81.23815 | 31008 ft | 464 kts | 182° |
| 2026-04-22 23:42 | 29.99520 | -81.23571 | 30443 ft | 459 kts | 182° |
| 2026-04-22 23:42 | 29.96337 | -81.23330 | 29862 ft | 455 kts | 182° |
| 2026-04-22 23:42 | 29.93203 | -81.23093 | 29246 ft | 452 kts | 182° |
| 2026-04-22 23:43 | 29.90047 | -81.22855 | 28634 ft | 448 kts | 182° |
| 2026-04-22 23:43 | 29.86968 | -81.22624 | 28033 ft | 444 kts | 181° |
| 2026-04-22 23:43 | 29.83880 | -81.22394 | 27428 ft | 441 kts | 181° |
| 2026-04-22 23:43 | 29.80854 | -81.22170 | 26844 ft | 437 kts | 181° |
| 2026-04-22 23:44 | 29.77841 | -81.21948 | 26250 ft | 434 kts | 181° |
| 2026-04-22 23:44 | 29.74835 | -81.21725 | 25656 ft | 430 kts | 181° |
| 2026-04-22 23:44 | 29.71833 | -81.21504 | 25062 ft | 427 kts | 181° |
| 2026-04-22 23:44 | 29.68881 | -81.21281 | 24468 ft | 424 kts | 180° |
| 2026-04-22 23:45 | 29.65935 | -81.21038 | 23870 ft | 421 kts | 180° |
| 2026-04-22 23:45 | 29.63030 | -81.20788 | 23285 ft | 418 kts | 180° |
| 2026-04-22 23:45 | 29.60153 | -81.20537 | 22697 ft | 414 kts | 179° |
| 2026-04-22 23:45 | 29.57302 | -81.20287 | 22121 ft | 403 kts | 179° |
| 2026-04-22 23:46 | 29.54557 | -81.20047 | 21564 ft | 392 kts | 179° |
| 2026-04-22 23:46 | 29.51863 | -81.19811 | 21011 ft | 382 kts | 180° |
| 2026-04-22 23:46 | 29.49231 | -81.19583 | 20467 ft | 373 kts | 180° |
| 2026-04-22 23:46 | 29.46686 | -81.19365 | 19937 ft | 366 kts | 180° |
| 2026-04-22 23:47 | 29.44145 | -81.19151 | 19413 ft | 374 kts | 180° |
| 2026-04-22 23:47 | 29.41481 | -81.18932 | 18857 ft | 384 kts | 179° |
| 2026-04-22 23:47 | 29.38808 | -81.18705 | 18275 ft | 383 kts | 179° |
| 2026-04-22 23:47 | 29.36201 | -81.18477 | 17722 ft | 373 kts | 179° |
| 2026-04-22 23:48 | 29.33656 | -81.18253 | 17183 ft | 363 kts | 179° |
| 2026-04-22 23:48 | 29.31163 | -81.18036 | 16547 ft | 357 kts | 179° |
| 2026-04-22 23:48 | 29.28697 | -81.17824 | 15994 ft | 348 kts | 178° |
| 2026-04-22 23:48 | 29.26320 | -81.17615 | 15523 ft | 339 kts | 178° |
| 2026-04-22 23:49 | 29.23999 | -81.17409 | 15038 ft | 331 kts | 178° |
| 2026-04-22 23:49 | 29.21693 | -81.17202 | 14566 ft | 336 kts | 176° |
| 2026-04-22 23:49 | 29.19319 | -81.16859 | 14086 ft | 345 kts | 170° |
| 2026-04-22 23:49 | 29.17005 | -81.16210 | 13778 ft | 338 kts | 164° |
| 2026-04-22 23:50 | 29.14804 | -81.15356 | 13159 ft | 333 kts | 160° |
| 2026-04-22 23:50 | 29.12654 | -81.14419 | 12606 ft | 326 kts | 159° |
| 2026-04-22 23:50 | 29.10576 | -81.13496 | 12119 ft | 318 kts | 159° |
| 2026-04-22 23:50 | 29.08544 | -81.12605 | 11777 ft | 306 kts | 159° |
| 2026-04-22 23:51 | 29.06593 | -81.11762 | 11594 ft | 289 kts | 159° |
| 2026-04-22 23:51 | 29.04754 | -81.10974 | 11414 ft | 278 kts | 160° |
| 2026-04-22 23:51 | 29.02922 | -81.10231 | 11112 ft | 289 kts | 160° |
| 2026-04-22 23:51 | 29.00960 | -81.09506 | 10678 ft | 294 kts | 162° |
| 2026-04-22 23:52 | 28.99037 | -81.08807 | 10317 ft | 285 kts | 161° |
| 2026-04-22 23:52 | 28.97173 | -81.08177 | 9976 ft | 275 kts | 167° |
| 2026-04-22 23:52 | 28.95330 | -81.07843 | 9861 ft | 258 kts | 173° |
| 2026-04-22 23:52 | 28.93562 | -81.07660 | 9619 ft | 257 kts | 174° |
| 2026-04-22 23:53 | 28.91711 | -81.07478 | 9219 ft | 271 kts | 174° |
| 2026-04-22 23:53 | 28.89828 | -81.07295 | 8880 ft | 275 kts | 177° |
| 2026-04-22 23:53 | 28.87912 | -81.07467 | 8534 ft | 274 kts | 194° |
| 2026-04-22 23:53 | 28.86200 | -81.08388 | 8235 ft | 272 kts | 213° |
| 2026-04-22 23:54 | 28.84691 | -81.09671 | 7882 ft | 272 kts | 217° |
| 2026-04-22 23:54 | 28.83565 | -81.10662 | 7621 ft | 271 kts | 216° |
| 2026-04-22 23:54 | 28.82053 | -81.11935 | 7305 ft | 269 kts | 215° |
| 2026-04-22 23:54 | 28.80535 | -81.13161 | 7158 ft | 259 kts | 214° |
| 2026-04-22 23:55 | 28.79096 | -81.14307 | 7079 ft | 248 kts | 214° |
| 2026-04-22 23:55 | 28.77699 | -81.15421 | 7008 ft | 238 kts | 214° |
| 2026-04-22 23:55 | 28.76357 | -81.16527 | 6849 ft | 239 kts | 218° |
| 2026-04-22 23:55 | 28.75101 | -81.17804 | 6460 ft | 245 kts | 223° |
| 2026-04-22 23:56 | 28.73867 | -81.19141 | 6146 ft | 245 kts | 222° |
| 2026-04-22 23:56 | 28.72618 | -81.20456 | 5839 ft | 245 kts | 221° |
| 2026-04-22 23:56 | 28.71349 | -81.21754 | 5531 ft | 245 kts | 221° |
| 2026-04-22 23:56 | 28.70079 | -81.23038 | 5229 ft | 245 kts | 220° |
| 2026-04-22 23:57 | 28.68798 | -81.24334 | 4924 ft | 245 kts | 220° |
| 2026-04-22 23:57 | 28.67521 | -81.25635 | 4616 ft | 245 kts | 220° |
| 2026-04-22 23:57 | 28.66262 | -81.26919 | 4315 ft | 245 kts | 220° |
| 2026-04-22 23:57 | 28.64907 | -81.28104 | 4014 ft | 242 kts | 205° |
| 2026-04-22 23:58 | 28.63336 | -81.28632 | 3774 ft | 234 kts | 180° |
| 2026-04-22 23:58 | 28.61719 | -81.28514 | 3445 ft | 232 kts | 171° |
| 2026-04-22 23:58 | 28.60094 | -81.28392 | 3135 ft | 232 kts | 175° |
| 2026-04-22 23:58 | 28.58482 | -81.28384 | 2784 ft | 231 kts | 176° |
| 2026-04-22 23:59 | 28.56907 | -81.28382 | 2517 ft | 220 kts | 176° |
| 2026-04-22 23:59 | 28.55394 | -81.28369 | 2203 ft | 213 kts | 175° |
| 2026-04-22 23:59 | 28.53963 | -81.28355 | 1930 ft | 198 kts | 175° |
| 2026-04-22 23:59 | 28.52612 | -81.28343 | 1704 ft | 186 kts | 174° |
| 2026-04-23 00:00 | 28.50219 | -81.28323 | 1198 ft | 156 kts | 174° |
| 2026-04-23 00:00 | 28.49159 | -81.28310 | 1028 ft | 153 kts | 174° |
| 2026-04-23 00:00 | 28.48086 | -81.28300 | 828 ft | 153 kts | 174° |
| 2026-04-23 00:01 | 28.47014 | -81.28288 | 628 ft | 152 kts | 174° |
| 2026-04-23 00:01 | 28.45946 | -81.28277 | 430 ft | 151 kts | 175° |
| 2026-04-23 00:01 | 28.44897 | -81.28264 | 237 ft | 151 kts | 175° |
| 2026-04-23 00:01 | 28.43862 | -81.28262 | 97 ft | 137 kts | 175° |
| 2026-04-23 00:02 | 28.43128 | -81.28244 | 88 ft | 56 kts | 179° |
| 2026-04-23 00:02 | 28.42801 | -81.28242 | 88 ft | 44 kts | 179° |
| 2026-04-23 00:02 | 28.42569 | -81.28286 | 88 ft | 21 kts | 216° |
| 2026-04-23 00:02 | 28.42522 | -81.28360 | 87 ft | 2 kts | 249° |
| 2026-04-23 00:04 | 28.42516 | -81.28376 | 87 ft | 6 kts | 249° |
| 2026-04-23 00:05 | 28.42479 | -81.28492 | 85 ft | 22 kts | 251° |
| 2026-04-23 00:05 | 28.42427 | -81.28661 | 85 ft | 22 kts | 251° |
| 2026-04-23 00:05 | 28.42368 | -81.28848 | 85 ft | 28 kts | 251° |
| 2026-04-23 00:05 | 28.42303 | -81.29067 | 85 ft | 30 kts | 256° |
| 2026-04-23 00:06 | 28.42285 | -81.29313 | 87 ft | 31 kts | 269° |
| 2026-04-23 00:06 | 28.42282 | -81.29574 | 88 ft | 34 kts | 269° |
| 2026-04-23 00:06 | 28.42291 | -81.29764 | 90 ft | 20 kts | 301° |
| 2026-04-23 00:06 | 28.42438 | -81.29794 | 88 ft | 25 kts | 1° |
| 2026-04-23 00:07 | 28.42607 | -81.29797 | 88 ft | 24 kts | 0° |
| 2026-04-23 00:07 | 28.42793 | -81.29797 | 90 ft | 26 kts | 359° |
| 2026-04-23 00:07 | 28.42983 | -81.29800 | 91 ft | 27 kts | 359° |
| 2026-04-23 00:07 | 28.43157 | -81.29802 | 91 ft | 22 kts | 359° |
| 2026-04-23 00:08 | 28.43206 | -81.29803 | 91 ft | 2 kts | 358° |
| 2026-04-23 00:08 | 28.43313 | -81.29810 | 91 ft | 21 kts | 332° |
| 2026-04-23 00:08 | 28.43359 | -81.29880 | 91 ft | 5 kts | 318° |
| 2026-04-23 00:08 | 28.43427 | -81.29911 | 91 ft | 14 kts | 340° |
| 2026-04-23 00:09 | 28.43469 | -81.29959 | 91 ft | 7 kts | 284° |
| 2026-04-23 00:09 | 28.43472 | -81.29985 | 91 ft | 3 kts | 272° |
| 2026-04-23 00:09 | 28.43472 | -81.29997 | 91 ft | 3 kts | 272° |
| 2026-04-23 00:09 | 28.43473 | -81.30010 | 91 ft | 3 kts | 272° |
| 2026-04-23 00:10 | 28.43473 | -81.30020 | 91 ft | 0 kts | 270° |